Flight Track Log - Related Links

Times and Time Zones

All times are in EDT time to prevent confusion due to time zone crossing. See the JZA8753 flight status page for this flight to view local times or setup timezone preferences in your user account.

Time Position Orientation Groundspeed Altitude Reporting Facility
EDT Latitude Longitude Course Direction KTS MPH feet Rate Location/Type
Tue 07:19:19 PM 45.4500 -73.7167 90° East 140 161 100  Level Montreal Center
Tue 07:20:51 PM 45.4500 -73.7000 90° East 220 253 100 15 Level Montreal Center
Tue 07:22:00 PM 45.4805 -73.7814 298° West  Level FlightAware Approximate
Tue 07:26:05 PM 45.4500 -73.7167 306° West 70 81 200  Level Montreal Center
Tue 07:27:05 PM 45.4667 -73.7500 305° West 120 138 1,600 1,250 Climbing Montreal Center
Tue 07:28:05 PM 45.4667 -73.8000 270° West 140 161 2,700 1,000 Climbing Montreal Center
Tue 07:29:00 PM 45.7990 -74.2454 311° West  Level Estimated
Tue 07:29:05 PM 45.5000 -73.8667 306° West 150 173 3,600  Level Montreal Center
Tue 07:30:00 PM 45.8444 -74.3122 296° West  Level Estimated
Tue 07:30:05 PM 45.5167 -73.9167 295° West 170 196 4,300  Level Montreal Center
Tue 07:31:00 PM 45.8855 -74.3729 306° West  Level Estimated
Tue 07:31:05 PM 45.5333 -73.9833 290° West 180 207 5,200  Level Montreal Center
Tue 07:32:05 PM 45.5833 -74.0500 317° Northwest 190 219 5,900 750 Climbing Montreal Center
Tue 07:33:05 PM 45.6000 -74.1000 295° West 190 219 6,700 733 Climbing Montreal Center
Tue 07:35:05 PM 45.6500 -74.2500 296° West 180 207 8,100 633 Climbing Montreal Center
Tue 07:36:05 PM 45.6833 -74.2833 325° Northwest 200 230 8,600 600 Climbing Montreal Center
Tue 07:37:05 PM 45.7167 -74.3667 300° West 200 230 9,300 650 Climbing Montreal Center
Tue 07:38:05 PM 45.7500 -74.4333 306° West 190 219 9,900 650 Climbing Montreal Center
Tue 07:39:05 PM 45.7833 -74.4833 314° West 190 219 10,600 650 Climbing Montreal Center
Tue 07:40:05 PM 45.8167 -74.5167 325° Northwest 180 207 11,200 600 Climbing Montreal Center
Tue 07:41:05 PM 45.8500 -74.5667 314° West 190 219 11,800 600 Climbing Montreal Center
Tue 07:42:05 PM 45.9000 -74.6167 325° Northwest 190 219 12,400 550 Climbing Montreal Center
Tue 07:43:05 PM 45.9333 -74.6833 306° West 190 219 12,900 550 Climbing Montreal Center
Tue 07:44:05 PM 45.9667 -74.7333 314° West 190 219 13,500 550 Climbing Montreal Center
Tue 07:45:05 PM 46.0000 -74.7833 314° West 190 219 14,000 500 Climbing Montreal Center
Tue 07:46:05 PM 46.0500 -74.8333 325° Northwest 190 219 14,500 555 Climbing Montreal Center
Tue 07:47:04 PM 46.0833 -74.8833 314° West 190 219 15,100 555 Climbing Montreal Center
Tue 07:48:04 PM 46.1167 -74.9500 306° West 190 219 15,600 446 Climbing Montreal Center
Tue 07:49:05 PM 46.1667 -75.0000 325° Northwest 190 219 16,000 198 Climbing Montreal Center
Tue 07:50:05 PM 46.2167 -75.0500 325° Northwest 200 230 16,000  Level Montreal Center
Tue 07:51:05 PM 46.2667 -75.1167 317° Northwest 210 242 16,000  Level Montreal Center
Tue 07:52:04 PM 46.3000 -75.1667 314° West 220 253 16,000  Level Montreal Center
Tue 07:53:04 PM 46.3500 -75.2333 317° Northwest 220 253 16,000  Level Montreal Center
Tue 07:54:04 PM 46.4000 -75.2833 325° Northwest 220 253 16,000  Level Montreal Center
Tue 07:55:05 PM 46.4333 -75.3667 300° West 230 265 16,000  Level Montreal Center
Tue 07:56:04 PM 46.4833 -75.4000 335° Northwest 220 253 16,000  Level Montreal Center
Tue 07:57:04 PM 46.5333 -75.4833 311° West 230 265 16,000  Level Montreal Center
Tue 07:58:05 PM 46.5667 -75.5500 306° West 230 265 16,000 -50 Level Montreal Center
Tue 07:59:04 PM 46.6167 -75.6000 326° Northwest 220 253 15,900 -50 Descending Montreal Center
Tue 08:00:05 PM 46.6667 -75.6667 318° Northwest 230 265 15,900  Level Montreal Center
Tue 08:01:05 PM 46.7167 -75.7167 326° Northwest 230 265 15,900  Level Montreal Center
Tue 08:02:05 PM 46.7500 -75.8000 300° West 230 265 15,900  Level Montreal Center
Tue 08:03:05 PM 46.8000 -75.8667 318° Northwest 240 276 15,900  Level Montreal Center
Tue 08:04:05 PM 46.8500 -75.9167 326° Northwest 230 265 15,900  Level Montreal Center
Tue 08:05:05 PM 46.9000 -76.0000 311° West 230 265 15,900  Level Montreal Center
Tue 08:06:05 PM 46.9500 -76.0667 318° Northwest 230 265 15,900  Level Montreal Center
Tue 08:07:05 PM 46.9833 -76.1333 306° West 230 265 15,900  Level Montreal Center
Tue 08:08:04 PM 47.0333 -76.1833 326° Northwest 240 276 15,900  Level Montreal Center
Tue 08:09:04 PM 47.0667 -76.2667 300° West 240 276 15,900  Level Montreal Center
Tue 08:10:04 PM 47.1167 -76.3667 306° West 240 276 15,900  Level Montreal Center
Tue 08:11:04 PM 47.1500 -76.4167 314° West 240 276 15,900  Level Montreal Center
Tue 08:12:04 PM 47.2000 -76.5167 306° West 230 265 15,900 50 Level Montreal Center
Tue 08:13:04 PM 47.2333 -76.5833 306° West 240 276 16,000 50 Climbing Montreal Center
Tue 08:14:04 PM 47.2833 -76.6667 312° West 240 276 16,000  Level Montreal Center
Tue 08:15:04 PM 47.3167 -76.7333 306° West 240 276 16,000  Level Montreal Center
Tue 08:16:04 PM 47.3667 -76.8167 312° West 240 276 16,000  Level Montreal Center
Tue 08:17:04 PM 47.4000 -76.8833 306° West 240 276 16,000  Level Montreal Center
Tue 08:18:04 PM 47.4500 -76.9667 312° West 230 265 16,000 -250 Level Montreal Center
Tue 08:19:04 PM 47.5000 -77.0333 318° Northwest 250 288 15,500 -900 Descending Montreal Center
Tue 08:20:04 PM 47.5333 -77.1167 301° West 250 288 14,200 -1,350 Descending Montreal Center
Tue 08:21:04 PM 47.5833 -77.2167 307° West 260 299 12,800 -1,400 Descending Montreal Center
Tue 08:23:00 PM 47.6616 -77.3340 308° West  Level FlightAware Approximate
Tue 08:30:00 PM 47.9362 -77.7411 345° North  Level FlightAware Approximate
Tue 08:31:00 PM 47.9917 -77.7633 345° North  Level FlightAware Approximate
Tue 08:32:00 PM 48.0488 -77.7667 North  Level FlightAware Approximate
Tue 08:33:00 PM 48.0500 -77.7667 North  Level FlightAware Approximate
Tue 08:34:00 PM 48.0533 -77.7828 North  Level Estimated
Tue 08:35:00 PM 48.0533 -77.7828 North  Level Estimated

Login

Don't have an account? Register now (free) for customized features, flight alerts, and more!